Time;durP1;ratioP1;P1;durP2;ratioP2;P2;SDS_P1;SDS_P2;PMS_P1;PMS_P2;Temp;Humidity;BMP_temperature;BMP_pressure;BME280_temperature;BME280_humidity;BME280_pressure;Samples;Min_cycle;Max_cycle;Signal;HPM_P1;HPM_P2
2021/01/03 00:00:41;;;;;;;9.88;6.40;;;3.90;96.60;;;8.36;76.55;101632.53;4989756;28;97152;-76
2021/01/03 00:03:10;;;;;;;15.40;4.75;;;3.90;96.60;;;8.31;76.49;101630.66;4982547;28;97302;-76
2021/01/03 00:05:37;;;;;;;13.00;6.90;;;3.90;96.60;;;8.25;76.92;101629.03;4973654;28;100119;-76
2021/01/03 00:08:07;;;;;;;23.25;6.13;;;3.90;96.60;;;8.20;77.15;101634.38;5007188;28;99243;-77
2021/01/03 00:10:35;;;;;;;17.77;5.25;;;3.80;96.60;;;8.20;77.05;101629.03;4997925;28;96677;-76
2021/01/03 00:13:06;;;;;;;21.02;7.20;;;3.80;96.60;;;8.26;76.86;101625.31;4995201;28;96689;-76
2021/01/03 00:15:34;;;;;;;24.40;7.65;;;3.80;96.50;;;8.24;76.61;101624.78;4987757;28;96763;-76
2021/01/03 00:18:05;;;;;;;17.60;7.32;;;3.80;96.60;;;8.31;76.22;101621.84;5006285;28;96777;-76
2021/01/03 00:20:33;;;;;;;11.27;6.00;;;3.80;96.60;;;8.28;76.69;101631.19;5008717;28;97207;-76
2021/01/03 00:23:03;;;;;;;11.30;4.65;;;3.80;96.60;;;8.31;76.39;101627.97;5006707;28;96614;-76
2021/01/03 00:25:33;;;;;;;13.05;4.15;;;3.80;96.60;;;8.32;76.00;101632.25;4993673;28;97945;-76
2021/01/03 00:28:05;;;;;;;5.63;4.38;;;3.80;96.60;;;8.32;76.55;101637.59;5002597;28;96835;-76
2021/01/03 00:30:33;;;;;;;22.70;4.97;;;3.80;96.60;;;8.31;76.14;101630.66;5006523;28;97431;-76
2021/01/03 00:33:04;;;;;;;26.52;6.43;;;3.80;96.60;;;8.32;76.13;101621.56;5020842;28;97336;-76
2021/01/03 00:35:35;;;;;;;10.95;8.02;;;3.70;96.50;;;8.25;76.58;101630.91;4990286;28;97837;-76
2021/01/03 00:38:11;;;;;;;10.02;5.38;;;3.80;96.60;;;8.11;76.66;101630.59;4992469;28;99416;-76
2021/01/03 00:40:40;;;;;;;23.42;5.53;;;3.70;96.50;;;8.08;77.08;101623.09;4993892;28;96841;-76
2021/01/03 00:43:13;;;;;;;14.98;6.68;;;3.80;96.80;;;8.15;76.66;101630.84;4990645;28;97303;-76
2021/01/03 00:45:42;;;;;;;14.23;4.55;;;3.70;96.50;;;8.16;76.65;101625.25;4996307;28;98015;-76
2021/01/03 00:48:12;;;;;;;19.42;5.53;;;3.80;96.60;;;8.11;77.12;101627.13;4993087;28;99910;-76
2021/01/03 00:50:40;;;;;;;11.45;5.65;;;3.70;96.50;;;8.07;77.30;101623.38;5020120;28;97022;-76
2021/01/03 00:53:09;;;;;;;12.75;3.70;;;3.70;96.50;;;8.11;77.07;101630.59;4991263;28;98966;-76
2021/01/03 00:55:37;;;;;;;10.25;4.50;;;3.70;96.50;;;8.01;77.02;101627.09;4990660;28;98970;-76
2021/01/03 00:58:05;;;;;;;11.15;6.25;;;3.70;96.50;;;7.98;77.22;101623.06;5003896;28;97865;-76
2021/01/03 01:00:35;;;;;;;12.88;4.13;;;3.70;96.50;;;7.97;77.57;101628.69;4991389;28;96749;-76
2021/01/03 01:03:06;;;;;;;9.52;5.68;;;3.70;96.50;;;7.89;77.51;101627.31;4983324;28;96734;-76
2021/01/03 01:05:34;;;;;;;3.58;2.75;;;3.70;96.50;;;7.94;77.94;101624.66;5016877;28;97805;-76
2021/01/03 01:08:04;;;;;;;8.05;3.20;;;3.70;96.50;;;8.01;76.98;101629.75;5009360;28;98688;-77
2021/01/03 01:10:33;;;;;;;12.27;4.15;;;3.70;96.50;;;8.02;77.19;101634.81;5011174;28;96833;-76
2021/01/03 01:13:03;;;;;;;4.90;2.60;;;3.70;96.60;;;8.06;77.06;101633.22;4984175;28;97167;-76
2021/01/03 01:15:33;;;;;;;13.27;6.35;;;3.70;96.60;;;7.97;76.97;101626.81;4977311;28;99531;-76
2021/01/03 01:18:05;;;;;;;6.40;4.47;;;3.70;96.50;;;7.98;77.44;101625.75;5016189;28;97635;-76
2021/01/03 01:20:35;;;;;;;16.85;8.27;;;3.70;96.60;;;7.95;77.16;101634.28;5005072;28;96799;-76
2021/01/03 01:23:04;;;;;;;9.23;5.30;;;3.70;96.60;;;7.96;77.44;101635.88;5020379;28;96709;-76
2021/01/03 01:25:34;;;;;;;15.32;8.07;;;3.70;96.60;;;8.01;76.97;101630.56;4984453;28;97003;-76
2021/01/03 01:28:05;;;;;;;5.30;3.65;;;3.70;96.50;;;7.97;77.02;101629.47;5005902;28;99727;-76
2021/01/03 01:30:37;;;;;;;11.77;4.45;;;3.70;96.60;;;8.00;76.90;101628.16;4991674;28;96830;-77
2021/01/03 01:33:07;;;;;;;8.88;6.15;;;3.60;96.50;;;7.98;77.11;101625.75;5016481;28;96911;-76
2021/01/03 01:35:36;;;;;;;7.07;5.07;;;3.60;96.50;;;8.01;76.70;101630.56;5015802;28;98175;-76
2021/01/03 01:38:05;;;;;;;11.80;4.78;;;3.70;96.60;;;8.00;76.85;101628.94;4999954;28;96754;-76
2021/01/03 01:40:38;;;;;;;7.35;3.25;;;3.60;96.50;;;7.98;76.88;101627.63;4997226;28;96754;-76
2021/01/03 01:43:11;;;;;;;22.58;6.88;;;3.60;96.50;;;7.97;77.39;101632.16;5022375;28;97015;-76
2021/01/03 01:45:43;;;;;;;;;;;3.60;96.50;;;7.95;77.14;101626.28;5005469;28;98534;-76
2021/01/03 01:48:17;;;;;;;11.27;4.25;;;3.70;96.60;;;7.98;76.78;101624.94;5008960;28;97416;-76
2021/01/03 01:50:50;;;;;;;5.13;3.22;;;3.60;96.50;;;7.98;76.98;101630.28;4999415;28;96843;-77
2021/01/03 01:53:29;;;;;;;6.88;5.45;;;3.60;96.60;;;7.98;77.35;101625.75;5004936;28;97031;-77
2021/01/03 01:56:08;;;;;;;7.80;4.55;;;3.60;96.50;;;7.93;77.25;101627.59;5000463;28;97271;-77
2021/01/03 01:58:50;;;;;;;6.40;4.93;;;3.60;96.60;;;7.81;77.63;101621.69;5016014;28;96705;-77
2021/01/03 02:01:40;;;;;;;23.98;3.83;;;3.60;96.50;;;7.80;78.08;101625.41;5016934;28;96730;-77
2021/01/03 02:04:27;;;;;;;16.30;6.38;;;3.60;96.50;;;7.78;77.57;101625.66;5018903;28;96862;-76
2021/01/03 02:07:07;;;;;;;7.40;5.00;;;3.60;96.50;;;7.78;77.74;101623.00;5004801;28;97865;-76
2021/01/03 02:09:54;;;;;;;38.45;7.28;;;3.60;96.50;;;7.85;77.00;101623.59;5005431;28;97834;-76
2021/01/03 02:12:30;;;;;;;16.00;7.00;;;3.60;96.60;;;7.92;77.61;101624.13;5006384;28;97210;-76
2021/01/03 02:15:11;;;;;;;5.70;4.47;;;3.60;96.60;;;7.97;76.92;101628.69;4996645;28;96802;-77
2021/01/03 02:17:44;;;;;;;7.85;4.72;;;3.60;96.60;;;7.99;77.04;101624.69;5002080;28;97669;-77
2021/01/03 02:20:16;;;;;;;17.13;7.20;;;3.60;96.60;;;8.02;77.25;101626.81;4996074;28;98051;-77
2021/01/03 02:22:50;;;;;;;;;;;3.60;96.60;;;8.02;77.14;101626.81;5004621;28;96758;-77
2021/01/03 02:25:21;;;;;;;7.18;4.60;;;3.60;96.60;;;8.03;76.36;101624.97;5014486;28;97165;-76
2021/01/03 02:28:10;;;;;;;14.23;6.53;;;3.60;96.80;;;8.09;76.48;101622.03;4975891;28;99892;-76
2021/01/03 02:30:41;;;;;;;11.23;6.65;;;3.60;96.60;;;8.11;76.58;101621.78;5001667;28;97798;-76
2021/01/03 02:33:24;;;;;;;9.93;5.85;;;3.60;96.60;;;8.12;76.23;101626.03;5018248;28;96735;-77
2021/01/03 02:35:59;;;;;;;11.75;6.07;;;3.60;96.60;;;8.00;76.79;101628.16;5019634;28;96561;-77
2021/01/03 02:38:41;;;;;;;10.68;6.25;;;3.70;96.60;;;8.00;77.46;101628.16;4990062;28;97937;-77
2021/01/03 02:41:10;;;;;;;10.35;6.70;;;3.60;96.50;;;8.01;76.90;101627.88;5006055;28;96793;-76
2021/01/03 02:43:38;;;;;;;5.88;4.70;;;3.60;96.50;;;8.02;76.50;101618.81;4990403;28;96868;-77
2021/01/03 02:46:05;;;;;;;34.58;4.70;;;3.60;96.50;;;8.00;77.02;101623.59;5006649;28;97202;-77
2021/01/03 02:48:33;;;;;;;14.98;5.53;;;3.70;96.60;;;7.97;76.97;101618.81;4983418;28;97848;-77
2021/01/03 02:51:04;;;;;;;19.60;6.68;;;3.60;96.50;;;8.03;77.42;101623.09;5017211;28;98049;-77
2021/01/03 02:53:33;;;;;;;17.02;8.27;;;3.60;96.50;;;7.97;76.91;101620.69;5019482;28;96809;-76
2021/01/03 02:56:04;;;;;;;20.58;8.25;;;3.60;96.50;;;8.00;76.92;101615.59;4995875;28;96899;-76
2021/01/03 02:58:33;;;;;;;18.30;5.10;;;3.60;96.50;;;7.97;77.38;101618.81;4992382;28;98938;-77
2021/01/03 03:01:03;;;;;;;18.60;7.03;;;3.60;96.50;;;7.99;76.87;101627.34;5002841;28;98719;-76
2021/01/03 03:03:31;;;;;;;13.98;8.52;;;3.60;96.50;;;7.96;77.51;101622.53;4998133;28;96796;-77
2021/01/03 03:05:59;;;;;;;12.88;6.65;;;3.60;96.50;;;8.04;76.72;101614.00;4998421;28;97144;-77
2021/01/03 03:08:30;;;;;;;6.40;4.78;;;3.60;96.50;;;8.07;76.55;101618.81;5002894;28;97929;-76
2021/01/03 03:10:58;;;;;;;7.38;3.92;;;3.60;96.50;;;8.07;76.88;101624.16;4986542;28;97624;-77
2021/01/03 03:13:26;;;;;;;38.42;5.70;;;3.60;96.50;;;8.06;76.99;101613.75;5005206;28;96657;-77
2021/01/03 03:15:54;;;;;;;20.52;5.65;;;3.60;96.50;;;8.10;76.69;101615.63;5001547;28;96637;-76
2021/01/03 03:18:26;;;;;;;10.48;4.25;;;3.60;96.50;;;8.11;76.77;101613.75;4981657;28;97971;-76
2021/01/03 03:20:54;;;;;;;13.90;6.80;;;3.60;96.50;;;8.12;76.81;101613.50;4999057;28;100437;-76
2021/01/03 03:23:22;;;;;;;12.55;6.25;;;3.70;96.50;;;8.12;76.28;101618.03;5002316;28;96852;-76
2021/01/03 03:25:50;;;;;;;11.00;5.15;;;3.70;96.50;;;8.17;76.18;101624.22;4998829;28;97469;-76
2021/01/03 03:28:18;;;;;;;9.35;5.57;;;3.70;96.60;;;8.21;75.96;101611.97;4982516;28;100280;-76
2021/01/03 03:30:47;;;;;;;17.70;7.43;;;3.60;96.50;;;8.23;75.89;101617.84;5002516;28;97772;-76
2021/01/03 03:33:16;;;;;;;5.05;3.88;;;3.60;96.50;;;8.25;76.14;101620.22;5007618;28;97197;-76
2021/01/03 03:35:45;;;;;;;28.02;5.18;;;3.60;96.50;;;8.23;75.89;101623.16;4990046;27;96950;-76
2021/01/03 03:38:13;;;;;;;19.95;8.60;;;3.60;96.50;;;8.17;76.31;101621.56;4986468;27;96822;-76
2021/01/03 03:40:44;;;;;;;29.80;7.47;;;3.70;96.50;;;8.13;76.83;101620.47;5005933;28;97771;-76
2021/01/03 03:43:12;;;;;;;6.70;4.78;;;3.70;96.50;;;8.10;76.84;101617.50;5000878;28;96870;-77
2021/01/03 03:45:40;;;;;;;11.63;5.93;;;3.60;96.50;;;8.09;76.42;101622.03;5004037;28;96908;-77
2021/01/03 03:48:10;;;;;;;11.02;5.22;;;3.70;96.50;;;8.16;76.52;101617.25;5000497;28;97742;-77
2021/01/03 03:50:40;;;;;;;25.83;6.32;;;3.70;96.50;;;8.19;76.15;101619.44;4985793;28;99727;-77
2021/01/03 03:53:10;;;;;;;22.63;6.75;;;3.60;96.50;;;8.23;75.93;101617.84;5006650;28;97775;-76
2021/01/03 03:55:40;;;;;;;9.60;5.97;;;3.60;96.50;;;8.17;76.61;101618.03;5000363;28;96972;-76
2021/01/03 03:58:08;;;;;;;17.02;7.50;;;3.60;96.50;;;8.12;76.34;101621.53;5000396;28;98962;-77
2021/01/03 04:00:36;;;;;;;15.40;5.07;;;3.70;96.50;;;8.13;76.56;101614.31;5018915;28;98744;-76
2021/01/03 04:03:06;;;;;;;19.23;6.72;;;3.70;96.50;;;8.12;76.83;101610.84;4987088;28;97131;-77
2021/01/03 04:05:34;;;;;;;11.38;6.05;;;3.60;96.50;;;8.18;76.24;101604.47;5019045;27;96866;-77
2021/01/03 04:08:05;;;;;;;18.35;5.60;;;3.60;96.50;;;8.14;76.23;101603.38;4992943;28;99132;-76
2021/01/03 04:10:33;;;;;;;11.70;4.50;;;3.70;96.50;;;8.22;75.50;101613.56;4997579;28;96830;-77
2021/01/03 04:13:02;;;;;;;9.65;6.45;;;3.60;96.50;;;8.20;76.36;101613.03;5010092;28;96712;-76
2021/01/03 04:15:31;;;;;;;10.15;4.78;;;3.70;96.50;;;8.19;76.39;101618.59;4994804;28;96794;-76
2021/01/03 04:17:59;;;;;;;14.35;5.75;;;3.70;96.50;;;8.13;76.29;101627.66;4993124;28;97745;-77
2021/01/03 04:20:30;;;;;;;18.00;7.38;;;3.70;96.50;;;8.11;76.54;101617.25;4991917;28;96772;-77
2021/01/03 04:22:58;;;;;;;25.55;6.90;;;3.70;96.50;;;8.12;76.61;101616.19;5005645;28;96805;-76
2021/01/03 04:25:33;;;;;;;11.77;5.82;;;3.70;96.50;;;8.17;76.56;101618.88;5005979;28;96976;-76
2021/01/03 04:28:02;;;;;;;6.55;4.70;;;3.70;96.50;;;8.14;76.55;101629.25;5014768;28;96920;-77
2021/01/03 04:30:31;;;;;;;15.40;5.70;;;3.60;96.50;;;8.10;76.36;101623.63;5003236;28;98833;-77
2021/01/03 04:32:59;;;;;;;33.22;6.00;;;3.70;96.50;;;8.09;76.80;101622.03;5001554;28;96846;-76
2021/01/03 04:35:30;;;;;;;4.88;3.97;;;3.70;96.50;;;8.11;76.28;101622.59;5017890;28;97465;-76
2021/01/03 04:37:58;;;;;;;18.45;6.10;;;3.60;96.50;;;8.03;76.69;101625.75;4994891;28;98983;-76
2021/01/03 04:40:32;;;;;;;9.98;5.70;;;3.60;96.50;;;8.09;76.41;101623.91;5001996;28;97591;-77
2021/01/03 04:43:05;;;;;;;18.08;5.68;;;3.60;96.50;;;8.04;76.49;101627.34;5002804;28;96789;-77
2021/01/03 04:45:41;;;;;;;12.65;7.00;;;3.60;96.50;;;8.04;76.29;101627.34;4993667;28;96833;-77
2021/01/03 04:48:21;;;;;;;32.28;8.93;;;3.60;96.50;;;7.99;76.46;101631.91;5015608;28;98842;-77
2021/01/03 04:51:26;;;;;;;6.25;5.15;;;3.60;96.50;;;7.99;76.65;101630.00;4983527;28;98978;-77
2021/01/03 04:54:06;;;;;;;3.83;3.40;;;3.60;96.50;;;8.01;77.09;101629.75;4990087;28;96721;-77
2021/01/03 04:56:52;;;;;;;14.75;5.95;;;3.60;96.50;;;8.00;76.93;101628.16;4992492;28;96815;-77
2021/01/03 04:59:41;;;;;;;7.10;5.15;;;3.60;96.50;;;8.01;76.52;101627.88;5002128;28;96983;-77
2021/01/03 05:03:21;;;;;;;9.70;6.18;;;3.70;96.50;;;8.03;76.95;101636.44;5011673;28;96797;-77
2021/01/03 05:05:51;;;;;;;19.35;5.38;;;3.60;96.50;;;7.94;77.13;101632.66;5020731;28;97208;-77
2021/01/03 05:08:38;;;;;;;7.63;4.68;;;3.60;96.50;;;7.92;76.88;101637.47;5018781;28;96703;-77
2021/01/03 05:11:24;;;;;;;18.27;4.07;;;3.60;96.50;;;7.91;77.07;101638.53;5003123;28;96796;-77
2021/01/03 05:14:10;;;;;;;17.63;6.18;;;3.60;96.50;;;7.98;77.13;101635.63;4999762;28;97570;-78
2021/01/03 05:16:39;;;;;;;11.35;4.78;;;3.60;96.50;;;7.96;76.56;101643.88;5002596;28;97037;-77
2021/01/03 05:19:07;;;;;;;8.40;4.60;;;3.60;96.50;;;7.98;76.78;101647.09;5009790;28;96887;-77
2021/01/03 05:21:50;;;;;;;11.18;5.47;;;3.50;96.50;;;7.98;76.98;101641.75;5019453;28;97834;-77
2021/01/03 05:24:21;;;;;;;9.82;5.18;;;3.60;96.50;;;8.00;76.47;101642.28;5015042;28;97840;-77
2021/01/03 05:26:52;;;;;;;8.80;3.08;;;3.60;96.50;;;7.97;76.74;101642.03;5003004;28;96735;-78
2021/01/03 05:29:28;;;;;;;8.68;5.70;;;3.60;96.50;;;7.94;76.74;101646.00;4990533;28;96795;-77
2021/01/03 05:32:00;;;;;;;15.43;7.63;;;3.50;96.50;;;7.94;77.02;101642.53;4982556;28;98923;-77
2021/01/03 05:34:35;;;;;;;8.00;4.97;;;3.50;96.50;;;7.91;76.37;101649.22;5002092;28;98888;-77
2021/01/03 05:37:10;;;;;;;16.42;6.43;;;3.60;96.50;;;7.96;76.33;101649.22;5019562;28;96830;-77
2021/01/03 05:39:40;;;;;;;14.77;7.75;;;3.50;96.50;;;7.95;77.01;101652.13;5001784;28;96849;-77
2021/01/03 05:42:37;;;;;;;6.93;5.13;;;3.50;96.50;;;7.95;76.76;101655.63;4989687;28;97378;-77
2021/01/03 05:45:26;;;;;;;10.77;4.00;;;3.50;96.50;;;7.94;77.22;101656.69;5007940;28;99152;-77
2021/01/03 05:48:02;;;;;;;9.63;3.50;;;3.50;96.50;;;7.98;76.92;101665.75;4991812;28;97279;-77
2021/01/03 05:50:37;;;;;;;14.80;5.97;;;3.50;96.40;;;7.93;76.88;101660.41;4966782;28;97347;-77
2021/01/03 05:53:17;;;;;;;23.73;4.50;;;3.50;96.40;;;7.93;77.08;101668.41;5000751;28;99571;-77
2021/01/03 05:55:55;;;;;;;16.58;6.30;;;3.50;96.50;;;7.94;76.64;101671.88;4980613;28;99492;-77
2021/01/03 05:58:30;;;;;;;10.13;4.28;;;3.50;96.40;;;7.98;76.55;101673.78;5001508;28;96877;-77
2021/01/03 06:01:20;;;;;;;5.20;4.40;;;3.50;96.50;;;7.96;76.10;101675.91;5004198;28;96689;-77
2021/01/03 06:04:06;;;;;;;9.02;4.82;;;3.50;96.50;;;7.94;76.70;101678.03;4992936;28;99859;-77
2021/01/03 06:06:59;;;;;;;16.42;5.88;;;3.50;96.40;;;7.92;76.80;101677.50;5001816;28;98807;-77
2021/01/03 06:09:38;;;;;;;7.97;3.55;;;3.50;96.40;;;7.93;76.37;101678.28;5021509;28;96828;-77
2021/01/03 06:12:18;;;;;;;16.40;5.80;;;3.50;96.40;;;7.94;76.73;101678.03;4999801;28;97408;-77
2021/01/03 06:14:51;;;;;;;13.05;4.25;;;3.50;96.40;;;7.84;76.50;101682.50;4999277;28;97792;-77
2021/01/03 06:17:32;;;;;;;;;;;3.50;96.40;;;7.86;77.17;101677.72;4999953;28;97873;-77
2021/01/03 06:20:14;;;;;;;4.45;3.75;;;3.50;96.50;;;7.87;76.47;101688.16;5017520;28;96626;-77
2021/01/03 06:22:48;;;;;;;11.68;5.82;;;3.40;96.40;;;7.90;77.01;101678.81;4999122;28;97207;-77
2021/01/03 06:25:41;;;;;;;10.43;5.80;;;3.50;96.40;;;7.86;76.93;101691.88;5000041;28;97965;-77
2021/01/03 06:28:28;;;;;;;4.55;2.00;;;3.40;96.70;;;7.87;76.35;101688.16;5000185;28;98810;-77
2021/01/03 06:31:55;;;;;;;6.05;3.92;;;3.40;96.40;;;7.91;77.03;101694.56;5017418;28;96817;-77
2021/01/03 06:34:31;;;;;;;10.30;2.72;;;3.50;96.40;;;7.87;77.00;101690.81;4981616;28;96915;-77
2021/01/03 06:37:11;;;;;;;8.70;5.53;;;3.40;96.40;;;7.90;76.21;101703.63;4995632;28;97715;-77
2021/01/03 06:39:54;;;;;;;7.03;3.70;;;3.40;96.40;;;7.90;76.60;101705.47;4989280;28;97914;-77
2021/01/03 06:43:12;;;;;;;12.88;3.72;;;3.40;96.40;;;7.88;76.75;101708.44;5005675;28;97082;-77
2021/01/03 06:46:53;;;;;;;22.95;5.82;;;3.40;96.40;;;7.80;76.55;101702.78;4997295;28;97555;-77
2021/01/03 06:50:20;;;;;;;3.67;3.33;;;3.40;96.40;;;7.76;76.37;101707.81;4992048;28;96843;-77
2021/01/03 06:53:37;;;;;;;5.20;3.38;;;3.40;96.40;;;7.74;76.71;101707.28;4984970;28;96777;-77
2021/01/03 06:56:47;;;;;;;8.43;4.75;;;3.40;96.40;;;7.68;77.31;101718.97;4997947;28;96658;-77
2021/01/03 07:00:11;;;;;;;3.92;3.60;;;3.40;96.40;;;7.71;77.22;101715.00;5004228;28;96846;-77
2021/01/03 07:02:48;;;;;;;4.30;2.67;;;3.40;96.40;;;7.71;76.57;101715.78;4982803;28;99800;-77
2021/01/03 07:05:18;;;;;;;12.15;3.75;;;3.40;96.40;;;7.75;75.99;101722.22;5017233;28;97503;-77
2021/01/03 07:08:02;;;;;;;10.45;4.63;;;3.40;96.40;;;7.76;76.98;101723.81;5002634;28;96745;-77
2021/01/03 07:10:39;;;;;;;2.92;2.65;;;3.30;96.40;;;7.75;76.74;101721.44;5006115;28;96768;-77
2021/01/03 07:13:40;;;;;;;4.97;3.17;;;3.40;96.40;;;7.78;76.53;101719.03;5017608;28;96985;-77
2021/01/03 07:16:59;;;;;;;5.63;2.83;;;3.30;96.30;;;7.83;76.17;101727.09;4983539;28;98866;-77
2021/01/03 07:19:44;;;;;;;10.32;4.28;;;3.30;96.30;;;7.83;76.37;101721.75;4968788;28;97137;-77
2021/01/03 07:22:21;;;;;;;5.03;2.28;;;3.30;96.30;;;7.84;75.94;101726.03;5002973;28;96767;-77
2021/01/03 07:25:29;;;;;;;15.05;3.63;;;3.30;96.30;;;7.84;76.25;101723.34;4996807;28;97965;-77
2021/01/03 07:28:16;;;;;;;4.78;2.25;;;3.30;96.30;;;7.81;76.24;101731.06;5012482;28;96879;-77
2021/01/03 07:30:59;;;;;;;10.60;3.30;;;3.30;96.30;;;7.81;76.13;101731.06;5000894;28;97146;-77
2021/01/03 07:34:02;;;;;;;2.95;2.70;;;3.30;96.30;;;7.85;76.48;101732.97;4998816;28;96854;-77
2021/01/03 07:36:46;;;;;;;4.00;3.35;;;3.30;96.30;;;7.80;76.77;101735.56;4983412;28;97936;-77
2021/01/03 07:39:35;;;;;;;8.65;5.97;;;3.30;96.30;;;7.76;76.66;101741.72;5016120;28;97651;-77
2021/01/03 07:42:22;;;;;;;2.25;2.05;;;3.30;96.30;;;7.81;76.48;101737.22;4996757;28;96756;-77
2021/01/03 07:44:53;;;;;;;2.42;1.58;;;3.30;96.30;;;7.81;75.93;101749.72;5003776;28;96832;-77
2021/01/03 07:47:43;;;;;;;2.60;2.38;;;3.30;96.30;;;7.83;75.85;101745.75;4983057;28;98848;-77
2021/01/03 07:50:34;;;;;;;9.43;4.95;;;3.30;96.30;;;7.82;75.92;101744.16;5003126;28;100196;-77
2021/01/03 07:53:29;;;;;;;6.45;3.63;;;3.30;96.30;;;7.86;75.79;101747.09;4980661;28;96852;-77
2021/01/03 07:56:23;;;;;;;;;;;3.30;96.30;;;7.80;76.18;101756.13;5000978;28;97521;-77
2021/01/03 07:58:53;;;;;;;6.20;4.05;;;3.30;96.30;;;7.77;76.50;101765.44;4996558;28;98968;-77
2021/01/03 08:01:31;;;;;;;3.53;2.88;;;3.30;96.30;;;7.88;75.82;101758.31;5001598;28;97417;-77
2021/01/03 08:04:09;;;;;;;5.22;2.90;;;3.30;96.30;;;7.83;75.78;101753.75;5000228;28;96811;-77
2021/01/03 08:06:37;;;;;;;11.52;3.28;;;3.30;96.30;;;7.73;76.10;101761.69;5001344;28;96753;-77
2021/01/03 08:09:06;;;;;;;6.28;4.18;;;3.30;96.30;;;7.64;77.08;101764.31;5015071;28;97741;-77
2021/01/03 08:11:40;;;;;;;8.40;4.20;;;3.30;96.30;;;7.69;76.90;101767.81;5015188;28;98780;-77
2021/01/03 08:14:26;;;;;;;3.58;3.08;;;3.30;96.30;;;7.69;76.65;101770.47;4971513;28;97208;-77
2021/01/03 08:16:59;;;;;;;6.35;2.40;;;3.30;96.30;;;7.76;76.48;101765.72;4988296;28;97186;-77
2021/01/03 08:19:31;;;;;;;5.63;1.58;;;3.30;96.30;;;7.79;76.13;101768.66;5014922;28;97840;-77
2021/01/03 08:22:02;;;;;;;6.97;4.18;;;3.30;96.20;;;7.72;76.35;101764.63;4984510;28;97512;-77
2021/01/03 08:24:34;;;;;;;18.27;3.33;;;3.30;96.20;;;7.82;76.65;101762.81;4970359;28;96660;-77
2021/01/03 08:27:17;;;;;;;21.52;4.82;;;3.30;96.20;;;7.78;76.34;101772.38;5002231;28;96831;-77
2021/01/03 08:29:58;;;;;;;6.43;3.03;;;3.30;96.20;;;7.72;77.03;101770.75;4999802;28;97548;-77
2021/01/03 08:32:31;;;;;;;7.68;2.30;;;3.30;96.20;;;7.75;77.05;101772.13;4986316;28;100145;-77
2021/01/03 08:35:02;;;;;;;3.83;2.92;;;3.30;96.20;;;7.71;77.22;101777.16;5014202;28;96797;-77
2021/01/03 08:37:42;;;;;;;4.97;3.30;;;3.40;96.20;;;7.73;77.51;101767.03;4985919;28;96777;-77
2021/01/03 08:40:25;;;;;;;5.22;3.38;;;3.40;96.20;;;7.80;76.87;101769.47;4999292;28;97976;-77
2021/01/03 08:43:04;;;;;;;8.15;2.88;;;3.40;96.20;;;7.76;76.56;101771.84;5012588;28;96634;-77
2021/01/03 08:45:38;;;;;;;4.13;3.35;;;3.40;96.20;;;7.83;77.37;101777.78;4983192;28;96719;-77
2021/01/03 08:48:14;;;;;;;4.80;3.53;;;3.40;96.20;;;7.98;75.87;101775.16;5004117;28;97144;-77
2021/01/03 08:50:42;;;;;;;5.18;2.97;;;3.40;96.10;;;8.00;76.18;101774.94;5003934;28;97771;-77
2021/01/03 08:53:21;;;;;;;3.95;1.92;;;3.50;96.20;;;8.08;76.24;101772.53;5006169;28;99163;-77
2021/01/03 08:55:51;;;;;;;1.50;1.40;;;3.50;96.10;;;8.06;76.11;101764.00;4991569;28;98263;-77
2021/01/03 08:58:21;;;;;;;7.65;3.60;;;3.50;96.10;;;7.99;76.52;101773.31;5017404;28;96714;-77
2021/01/03 09:00:59;;;;;;;2.10;1.90;;;3.50;96.10;;;8.04;76.05;101770.69;5018097;28;97858;-77
2021/01/03 09:03:33;;;;;;;3.00;1.27;;;3.50;96.10;;;8.06;76.37;101785.34;5006558;28;99915;-77
2021/01/03 09:06:04;;;;;;;2.88;2.50;;;3.50;96.10;;;8.03;76.33;101782.41;5016026;28;96819;-77
2021/01/03 09:08:37;;;;;;;3.85;2.30;;;3.50;96.10;;;8.05;76.54;101783.75;4987638;28;96709;-77
2021/01/03 09:11:14;;;;;;;2.22;1.42;;;3.60;96.10;;;8.06;76.05;101787.22;5016096;28;97787;-76
2021/01/03 09:13:50;;;;;;;3.97;1.88;;;3.60;96.10;;;8.09;76.68;101781.38;4980348;28;97557;-77
2021/01/03 09:16:32;;;;;;;2.67;2.47;;;3.60;96.10;;;8.15;75.84;101788.34;4982270;28;96895;-77
2021/01/03 09:19:15;;;;;;;6.85;2.65;;;3.60;96.00;;;8.10;76.61;101778.44;5016180;28;97324;-77
2021/01/03 09:21:50;;;;;;;2.85;1.75;;;3.60;96.00;;;8.15;76.39;101791.81;5014672;28;97965;-76
2021/01/03 09:24:26;;;;;;;1.40;1.33;;;3.70;96.00;;;8.18;75.84;101791.34;5003993;28;97248;-76
2021/01/03 09:26:57;;;;;;;7.63;2.55;;;3.70;96.00;;;8.16;76.02;101788.09;4995483;28;97150;-76
2021/01/03 09:29:32;;;;;;;3.10;2.50;;;3.70;96.00;;;8.22;76.28;101795.09;5004220;28;96851;-76
2021/01/03 09:32:12;;;;;;;5.95;3.17;;;3.70;96.00;;;8.23;76.26;101794.03;4999291;28;97682;-77
2021/01/03 09:35:35;;;;;;;5.18;3.05;;;3.70;96.00;;;8.27;76.24;101800.44;4996755;28;100616;-77
2021/01/03 09:39:04;;;;;;;4.57;2.92;;;3.80;96.00;;;8.30;76.46;101799.91;5013906;27;98169;-77
2021/01/03 09:42:00;;;;;;;4.20;2.92;;;3.80;96.00;;;8.37;76.06;101805.81;4995477;28;96808;-77
2021/01/03 09:44:45;;;;;;;3.70;2.55;;;3.80;95.90;;;8.43;76.35;101810.13;5001578;28;96726;-77
2021/01/03 09:47:15;;;;;;;2.93;1.57;;;3.80;95.90;;;8.43;75.78;101804.78;4982922;28;100920;-77
2021/01/03 09:49:48;;;;;;;2.88;1.15;;;3.90;95.90;;;8.48;76.42;101806.66;5019494;28;96718;-77
2021/01/03 09:52:28;;;;;;;;;;;3.90;95.90;;;8.48;75.81;101806.66;4996999;28;97294;-77
2021/01/03 09:55:09;;;;;;;2.72;2.15;;;3.90;95.90;;;8.53;75.97;101809.34;5014259;28;97917;-77
2021/01/03 09:57:50;;;;;;;5.07;2.75;;;4.00;95.90;;;8.59;75.83;101802.97;4973931;28;99171;-77
2021/01/03 10:00:24;;;;;;;2.83;2.55;;;4.00;95.90;;;8.59;75.84;101803.78;5000594;28;96725;-77
2021/01/03 10:03:13;;;;;;;4.88;2.10;;;4.00;95.90;;;8.68;75.45;101801.41;5014023;27;97575;-77
2021/01/03 10:05:41;;;;;;;5.07;2.72;;;4.10;95.90;;;8.69;75.90;101811.81;5009622;28;97796;-77
2021/01/03 10:08:23;;;;;;;5.88;3.35;;;4.10;95.90;;;8.78;75.53;101809.44;4999150;28;97714;-77
2021/01/03 10:10:56;;;;;;;7.85;2.92;;;4.10;95.80;;;8.83;75.64;101802.25;5010617;28;98005;-77
2021/01/03 10:13:28;;;;;;;0.90;0.85;;;4.10;95.80;;;8.85;75.41;101801.97;4991740;28;97172;-77
2021/01/03 10:16:15;;;;;;;4.13;2.45;;;4.20;95.80;;;8.84;75.58;101811.88;4999060;28;98050;-77
2021/01/03 10:18:43;;;;;;;24.05;2.65;;;4.20;95.70;;;8.95;74.86;101810.81;4984985;28;96793;-77
2021/01/03 10:21:29;;;;;;;3.65;2.80;;;4.20;95.70;;;8.98;75.19;101802.25;5001264;28;97402;-77
2021/01/03 10:24:03;;;;;;;2.15;1.88;;;4.30;95.70;;;9.06;74.99;101808.97;5001625;28;97143;-77
2021/01/03 10:26:36;;;;;;;3.38;2.00;;;4.30;95.70;;;9.05;75.15;101810.03;5002008;28;98998;-77
2021/01/03 10:29:07;;;;;;;4.23;2.87;;;4.40;95.70;;;9.06;75.14;101812.44;4988345;28;97814;-77
2021/01/03 10:31:44;;;;;;;3.67;1.67;;;4.40;95.70;;;9.05;75.14;101808.16;4980289;28;97307;-77
2021/01/03 10:34:14;;;;;;;4.07;2.25;;;4.40;95.60;;;9.11;75.12;101801.75;5019365;28;97258;-77
2021/01/03 10:36:42;;;;;;;8.35;3.00;;;4.40;95.60;;;9.12;75.27;101805.22;4985993;28;100337;-77
2021/01/03 10:39:13;;;;;;;5.97;3.88;;;4.40;95.60;;;9.06;75.25;101803.59;4994273;28;97731;-77
2021/01/03 10:41:47;;;;;;;9.05;4.10;;;4.50;95.60;;;9.09;75.50;101808.44;4986087;28;97341;-77
2021/01/03 10:44:16;;;;;;;9.07;2.60;;;4.40;95.60;;;9.06;75.64;101809.78;4988463;28;96943;-77
2021/01/03 10:46:49;;;;;;;11.07;4.10;;;4.50;95.60;;;9.01;75.64;101809.78;4985420;28;97436;-77
2021/01/03 10:49:18;;;;;;;9.52;4.25;;;4.50;95.60;;;8.99;75.44;101805.75;5009597;28;98774;-77
2021/01/03 10:51:48;;;;;;;6.25;5.00;;;4.50;95.60;;;9.07;75.32;101799.88;4979152;28;97392;-77
2021/01/03 10:54:22;;;;;;;7.25;3.75;;;4.50;95.60;;;9.13;75.24;101799.63;5003129;28;97149;-77
2021/01/03 10:57:08;;;;;;;11.00;5.65;;;4.50;95.60;;;9.24;75.17;101801.22;4981540;28;98411;-77
2021/01/03 10:59:35;;;;;;;4.18;2.78;;;4.50;95.60;;;9.36;74.44;101804.44;4980808;28;99258;-77
2021/01/03 11:02:06;;;;;;;10.05;5.07;;;4.50;95.60;;;9.35;74.84;101800.19;4986523;28;97321;-77
2021/01/03 11:04:34;;;;;;;6.85;3.55;;;4.60;95.60;;;9.47;74.34;101800.69;4981366;28;97299;-77